Time;durP1;ratioP1;P1;durP2;ratioP2;P2;SDS_P1;SDS_P2;PMS_P1;PMS_P2;Temp;Humidity;BMP_temperature;BMP_pressure;BME280_temperature;BME280_humidity;BME280_pressure;Samples;Min_cycle;Max_cycle;Signal;HPM_P1;HPM_P2
2022/08/13 00:02:16;;;;;;;7.77;6.93;;;;;;;22.97;47.88;101609.06;5098195;28;20515;-69
2022/08/13 00:04:56;;;;;;;7.33;6.27;;;;;;;23.18;48.09;101604.97;5097989;28;20489;-70
2022/08/13 00:07:22;;;;;;;11.70;7.83;;;;;;;22.69;49.12;101608.97;5097975;28;20384;-69
2022/08/13 00:09:48;;;;;;;9.60;7.70;;;;;;;22.63;49.54;101611.81;5097991;28;20776;-70
2022/08/13 00:15:11;;;;;;;9.30;6.80;;;;;;;22.26;49.87;101618.91;5097977;28;20187;-70
2022/08/13 00:17:37;;;;;;;8.33;7.13;;;;;;;22.77;49.39;101606.09;5097969;28;20391;-69
2022/08/13 00:20:04;;;;;;;8.50;7.20;;;;;;;22.79;48.52;101604.28;5097877;28;20599;-71
2022/08/13 00:22:29;;;;;;;9.23;6.60;;;;;;;22.20;50.32;101616.41;5097969;28;20429;-70
2022/08/13 00:24:55;;;;;;;9.60;6.60;;;;;;;22.15;50.68;101611.22;5098039;28;20406;-69
2022/08/13 00:27:22;;;;;;;10.33;6.63;;;;;;;22.61;49.49;101609.19;5097899;28;20442;-70
2022/08/13 00:29:48;;;;;;;6.77;6.17;;;;;;;22.26;50.33;101612.72;5097743;28;20724;-70
2022/08/13 00:32:14;;;;;;;11.27;6.23;;;;;;;22.30;49.90;101606.41;5100757;28;20540;-71
2022/08/13 00:34:39;;;;;;;7.80;6.23;;;;;;;22.44;49.98;101611.41;5100659;28;20463;-71
2022/08/13 00:37:10;;;;;;;16.53;6.30;;;;;;;21.88;50.94;101615.41;5101585;28;20421;-70
2022/08/13 00:39:36;;;;;;;6.87;6.17;;;;;;;22.18;50.87;101612.94;5101189;28;20195;-70
2022/08/13 00:42:02;;;;;;;9.93;5.80;;;;;;;22.85;48.69;101601.44;5101746;28;20502;-71
2022/08/13 00:44:31;;;;;;;10.70;6.03;;;;;;;22.75;48.54;101610.59;5101286;28;20870;-70
2022/08/13 00:49:41;;;;;;;7.50;6.20;;;;;;;22.97;48.34;101605.53;5101459;28;20909;-70
2022/08/13 00:52:09;;;;;;;8.53;5.83;;;;;;;22.99;47.88;101599.28;5101615;28;20444;-70
2022/08/13 00:54:34;;;;;;;8.43;6.17;;;;;;;23.27;47.04;101601.13;5101063;28;20309;-70
2022/08/13 00:57:06;;;;;;;10.30;5.77;;;;;;;23.22;47.61;101605.75;5100620;28;20445;-70
2022/08/13 00:59:32;;;;;;;6.30;5.20;;;;;;;23.21;46.87;101601.34;5101597;28;20219;-70
2022/08/13 01:01:58;;;;;;;14.93;6.03;;;;;;;23.26;46.46;101602.09;5101145;28;20815;-70
2022/08/13 01:04:24;;;;;;;6.03;5.43;;;;;;;23.22;46.86;101600.44;5100962;28;20389;-70
2022/08/13 01:06:50;;;;;;;9.43;5.20;;;;;;;23.16;47.05;101596.13;5101479;28;20169;-70
2022/08/13 01:09:16;;;;;;;8.40;5.23;;;;;;;22.87;47.58;101597.81;5101024;28;20807;-70
2022/08/13 01:11:42;;;;;;;8.77;5.50;;;;;;;22.88;47.52;101596.91;5100980;28;20397;-70
2022/08/13 01:14:08;;;;;;;10.00;5.27;;;;;;;23.00;47.29;101594.81;5100497;28;20196;-70
2022/08/13 01:16:36;;;;;;;9.67;5.37;;;;;;;22.64;47.87;101597.59;5100202;28;20980;-70
2022/08/13 01:19:03;;;;;;;5.73;5.13;;;;;;;22.92;47.31;101588.84;5099986;28;20512;-71
2022/08/13 01:21:35;;;;;;;5.67;5.10;;;;;;;22.83;46.64;101596.16;5101346;28;20392;-69
2022/08/13 01:24:00;;;;;;;8.03;5.73;;;;;;;22.80;46.85;101592.72;5099994;28;20385;-70
2022/08/13 01:26:27;;;;;;;6.53;5.20;;;;;;;23.20;46.00;101587.19;5100763;28;20429;-68
2022/08/13 01:28:52;;;;;;;6.17;5.57;;;;;;;23.08;46.42;101595.47;5101214;28;20247;-69
2022/08/13 01:31:19;;;;;;;5.93;5.23;;;;;;;23.15;46.19;101583.78;5100756;28;20906;-69
2022/08/13 01:33:47;;;;;;;5.90;5.30;;;;;;;23.34;45.28;101583.19;5100660;28;20176;-69
2022/08/13 01:36:13;;;;;;;6.47;5.00;;;;;;;22.92;45.84;101588.84;5100431;28;20407;-68
2022/08/13 01:38:40;;;;;;;6.20;5.60;;;;;;;22.82;46.10;101586.44;5100426;28;20438;-70
2022/08/13 01:41:08;;;;;;;9.17;5.80;;;;;;;23.18;45.81;101577.50;5099910;28;20533;-69
2022/08/13 01:43:35;;;;;;;7.10;5.80;;;;;;;23.40;45.57;101582.16;5101170;28;20453;-69
2022/08/13 01:46:01;;;;;;;7.30;5.50;;;;;;;23.51;44.62;101585.34;5100305;28;20682;-71
2022/08/13 01:51:21;;;;;;;6.87;6.17;;;;;;;22.63;46.43;101590.53;5099877;28;20210;-69
2022/08/13 01:53:58;;;;;;;8.03;6.40;;;;;;;23.00;45.61;101584.19;5099904;28;20424;-69
2022/08/13 01:56:24;;;;;;;7.40;6.70;;;;;;;23.26;45.43;101582.56;5100092;28;20428;-70
2022/08/13 01:58:54;;;;;;;6.33;5.73;;;;;;;22.74;46.02;101593.75;5099970;28;20489;-70
2022/08/13 02:01:25;;;;;;;8.13;6.23;;;;;;;23.07;46.18;101591.09;5100253;28;20917;-70
2022/08/13 02:03:51;;;;;;;8.50;5.87;;;;;;;22.76;46.80;101597.25;5099922;28;20438;-69
2022/08/13 02:06:21;;;;;;;7.33;6.43;;;;;;;22.97;46.23;101592.25;5100282;28;20811;-69
2022/08/13 02:08:50;;;;;;;6.83;6.20;;;;;;;23.10;45.48;101584.81;5099947;28;20396;-70
2022/08/13 02:11:16;;;;;;;9.23;6.17;;;;;;;22.94;46.25;101584.38;5099942;28;20418;-70
2022/08/13 02:13:41;;;;;;;6.90;6.20;;;;;;;22.72;46.24;101584.97;5099831;28;20417;-71
2022/08/13 02:16:07;;;;;;;6.53;5.87;;;;;;;23.16;45.94;101585.50;5099588;28;20263;-70
2022/08/13 02:18:32;;;;;;;7.00;6.30;;;;;;;22.98;46.52;101586.03;5099649;28;20208;-70
2022/08/13 02:20:59;;;;;;;6.80;6.10;;;;;;;23.03;46.11;101589.44;5098840;28;20172;-70
2022/08/13 02:23:31;;;;;;;6.10;5.50;;;;;;;23.05;46.57;101587.56;5100189;28;20161;-70
2022/08/13 02:25:57;;;;;;;11.50;6.57;;;;;;;22.92;46.70;101583.53;5099675;28;20520;-70
2022/08/13 02:28:22;;;;;;;7.80;5.60;;;;;;;22.72;46.61;101582.31;5099631;28;20505;-70
2022/08/13 02:30:50;;;;;;;6.47;5.77;;;;;;;22.84;46.67;101586.41;5100057;28;20408;-70
2022/08/13 02:33:15;;;;;;;8.63;5.70;;;;;;;22.71;47.25;101589.41;5099268;28;20172;-70
2022/08/13 02:35:42;;;;;;;10.87;6.33;;;;;;;23.07;46.59;101596.41;5099397;28;20415;-69
2022/08/13 02:38:12;;;;;;;7.67;6.50;;;;;;;22.90;46.49;101588.91;5098962;28;20522;-70
2022/08/13 02:43:25;;;;;;;9.30;6.63;;;;;;;22.29;48.28;101599.38;5099562;28;20450;-70
2022/08/13 02:45:53;;;;;;;9.80;6.57;;;;;;;22.75;47.47;101589.34;5099095;28;20418;-70
2022/08/13 02:48:19;;;;;;;10.30;5.70;;;;;;;22.82;47.29;101586.44;5099222;28;20169;-69
2022/08/13 02:50:45;;;;;;;8.77;6.30;;;;;;;22.90;47.04;101585.38;5099568;28;20414;-69
2022/08/13 02:53:13;;;;;;;7.80;7.10;;;;;;;22.72;47.98;101577.00;5099027;28;20436;-70
2022/08/13 02:55:41;;;;;;;9.90;6.40;;;;;;;22.71;47.70;101581.44;5097830;28;20665;-70
2022/08/13 02:58:07;;;;;;;8.00;5.83;;;;;;;22.43;48.31;101583.97;5099556;28;20404;-70
2022/08/13 03:00:32;;;;;;;10.77;5.90;;;;;;;22.92;47.17;101580.88;5098668;28;20886;-70
2022/08/13 03:02:58;;;;;;;8.37;6.27;;;;;;;22.51;48.25;101573.13;5098777;28;20172;-70
2022/08/13 03:05:23;;;;;;;8.97;6.47;;;;;;;21.94;49.55;101583.41;5099298;28;20184;-69
2022/08/13 03:07:49;;;;;;;8.47;6.63;;;;;;;22.41;49.10;101585.81;5098821;28;20168;-70
2022/08/13 03:10:16;;;;;;;7.47;6.63;;;;;;;22.38;49.14;101580.56;5098860;28;20176;-71
2022/08/13 03:12:48;;;;;;;7.70;6.57;;;;;;;22.52;47.54;101573.09;5099798;28;20381;-70
2022/08/13 03:15:15;;;;;;;7.53;6.37;;;;;;;22.15;48.57;101586.41;5097860;28;20414;-69
2022/08/13 03:17:42;;;;;;;7.30;6.40;;;;;;;21.99;49.26;101585.97;5098645;28;20414;-69
2022/08/13 03:20:15;;;;;;;6.80;6.20;;;;;;;22.17;48.47;101584.63;5098926;28;20512;-69
2022/08/13 03:22:56;;;;;;;10.23;6.10;;;;;;;22.13;48.47;101575.84;5098632;28;20421;-70
2022/08/13 03:25:25;;;;;;;8.70;6.70;;;;;;;21.91;50.18;101578.16;5098697;28;20414;-70
2022/08/13 03:27:52;;;;;;;13.33;6.97;;;;;;;22.28;48.99;101581.69;5098407;28;20433;-69
2022/08/13 03:30:21;;;;;;;7.63;6.93;;;;;;;21.87;50.49;101584.47;5098337;28;20402;-69
2022/08/13 03:32:47;;;;;;;10.93;6.67;;;;;;;21.84;50.05;101577.44;5099061;28;20417;-69
2022/08/13 03:35:24;;;;;;;7.60;6.80;;;;;;;22.11;48.82;101579.44;5098144;28;20450;-70
2022/08/13 03:37:54;;;;;;;6.77;6.17;;;;;;;22.18;48.88;101579.25;5098355;28;20493;-70
2022/08/13 03:40:23;;;;;;;8.77;7.00;;;;;;;22.26;48.83;101576.41;5098235;28;20514;-69
2022/08/13 03:42:48;;;;;;;7.50;6.20;;;;;;;22.24;48.37;101583.53;5098379;28;20397;-70
2022/08/13 03:45:15;;;;;;;7.87;7.07;;;;;;;22.32;47.89;101580.69;5098616;28;20433;-70
2022/08/13 03:47:41;;;;;;;8.80;6.23;;;;;;;22.01;49.39;101577.03;5098803;28;20258;-70
2022/08/13 03:50:08;;;;;;;8.37;6.70;;;;;;;22.30;48.68;101583.41;5098400;28;20434;-70
2022/08/13 03:52:34;;;;;;;8.43;6.80;;;;;;;21.99;48.62;101578.84;5098693;28;20456;-70
2022/08/13 03:55:00;;;;;;;8.30;6.73;;;;;;;22.04;49.11;101570.75;5098003;28;20497;-69
2022/08/13 03:57:26;;;;;;;7.27;6.50;;;;;;;21.86;48.97;101565.00;5098135;28;20667;-69
2022/08/13 03:59:52;;;;;;;9.80;6.77;;;;;;;21.76;49.78;101567.91;5098419;28;20462;-70
2022/08/13 04:02:17;;;;;;;7.97;6.33;;;;;;;22.00;49.18;101566.44;5098206;28;20448;-69
2022/08/13 04:04:46;;;;;;;11.80;7.20;;;;;;;22.17;48.49;101568.69;5097624;28;20172;-70
2022/08/13 04:07:20;;;;;;;7.83;6.30;;;;;;;22.04;49.84;101571.66;5102202;28;20199;-69
2022/08/13 04:09:46;;;;;;;8.57;6.47;;;;;;;21.94;50.16;101571.91;5102938;28;20417;-69
2022/08/13 04:12:12;;;;;;;7.87;6.83;;;;;;;22.07;48.60;101567.16;5102946;28;20410;-69
2022/08/13 04:14:39;;;;;;;7.43;6.60;;;;;;;22.25;48.70;101571.16;5102157;28;20462;-69
2022/08/13 04:17:08;;;;;;;10.60;6.30;;;;;;;22.41;48.77;101574.28;5102214;28;20388;-69
2022/08/13 04:19:35;;;;;;;7.47;6.67;;;;;;;22.26;47.99;101567.56;5102359;28;20570;-69
2022/08/13 04:22:01;;;;;;;7.60;6.70;;;;;;;22.18;49.46;101567.78;5102156;28;20458;-69
2022/08/13 04:24:27;;;;;;;13.23;6.70;;;;;;;22.22;48.26;101564.13;5101873;28;20658;-71
2022/08/13 04:26:54;;;;;;;8.00;6.40;;;;;;;22.37;48.03;101562.88;5102551;28;20380;-71
2022/08/13 04:29:20;;;;;;;8.23;6.20;;;;;;;22.36;49.04;101564.66;5101024;28;20418;-70
2022/08/13 04:31:45;;;;;;;8.87;6.60;;;;;;;22.26;49.50;101570.22;5101709;28;20791;-71
2022/08/13 04:34:11;;;;;;;7.23;6.53;;;;;;;22.13;49.11;101562.56;5102051;28;20176;-70
2022/08/13 04:36:36;;;;;;;8.40;6.20;;;;;;;22.61;48.44;101560.47;5101771;28;20184;-70
2022/08/13 04:39:01;;;;;;;6.90;6.20;;;;;;;24.01;45.62;101553.56;5101814;28;20212;-70
2022/08/13 04:41:27;;;;;;;7.93;6.03;;;;;;;24.77;43.99;101563.44;5084512;28;20169;-70
2022/08/13 04:43:53;;;;;;;6.83;6.10;;;;;;;23.99;44.86;101555.44;5100665;28;20419;-69
2022/08/13 04:46:18;;;;;;;6.43;5.83;;;;;;;24.92;42.85;101559.31;5101486;28;20414;-70
2022/08/13 04:48:44;;;;;;;6.27;5.67;;;;;;;25.68;42.06;101559.94;5102069;28;20247;-69
2022/08/13 04:51:09;;;;;;;7.00;6.30;;;;;;;25.96;41.03;101558.78;5101328;28;20254;-69
2022/08/13 04:53:40;;;;;;;7.97;6.00;;;;;;;25.12;42.04;101558.56;5101250;28;20260;-70
2022/08/13 04:56:06;;;;;;;6.30;5.50;;;;;;;25.61;41.82;101550.44;5102283;28;20174;-71
2022/08/13 04:58:36;;;;;;;11.50;6.00;;;;;;;26.14;40.86;101547.38;5101087;28;20513;-70
2022/08/13 05:01:09;;;;;;;6.87;5.63;;;;;;;25.98;41.32;101549.78;5101331;28;20168;-69
2022/08/13 05:03:37;;;;;;;7.97;5.43;;;;;;;25.97;41.22;101547.19;5100338;28;20414;-69
2022/08/13 05:06:02;;;;;;;8.77;5.70;;;;;;;25.45;42.81;101551.06;5101113;28;20460;-70
2022/08/13 05:08:31;;;;;;;6.90;6.00;;;;;;;24.64;44.46;101555.88;5101365;28;20435;-69
2022/08/13 05:10:56;;;;;;;6.00;5.47;;;;;;;23.33;47.20;101568.19;5101204;28;20180;-70
2022/08/13 05:13:35;;;;;;;6.00;4.87;;;;;;;23.32;47.13;101558.44;5100779;28;20512;-70
2022/08/13 05:16:02;;;;;;;8.47;5.70;;;;;;;22.49;49.60;101565.22;5100882;28;20210;-70
2022/08/13 05:18:30;;;;;;;11.33;5.60;;;;;;;22.72;48.73;101561.06;5100323;28;20446;-70
2022/08/13 05:21:03;;;;;;;6.50;5.40;;;;;;;22.77;48.59;101567.13;5101522;28;20493;-70
2022/08/13 05:23:30;;;;;;;7.17;5.60;;;;;;;22.78;48.98;101566.19;5100854;28;20676;-70
2022/08/13 05:25:57;;;;;;;6.10;5.00;;;;;;;22.47;47.98;101560.84;5100042;28;20414;-71
2022/08/13 05:28:22;;;;;;;6.17;5.30;;;;;;;22.42;48.43;101560.09;5100651;28;20450;-70
2022/08/13 05:30:48;;;;;;;8.70;5.70;;;;;;;22.03;49.15;101569.03;5100801;28;20414;-71
2022/08/13 05:33:18;;;;;;;9.40;5.77;;;;;;;21.85;49.85;101571.25;5100868;28;20168;-71
2022/08/13 05:35:55;;;;;;;5.70;5.20;;;;;;;23.00;47.26;101557.59;5100690;28;20180;-70
2022/08/13 05:38:22;;;;;;;5.70;5.10;;;;;;;25.98;41.24;101548.91;5100419;28;20769;-71
2022/08/13 05:40:49;;;;;;;6.23;4.87;;;;;;;27.06;37.65;101537.03;5100453;28;20682;-71
2022/08/13 05:43:16;;;;;;;6.40;5.37;;;;;;;25.66;40.40;101543.97;5100370;28;20479;-70
2022/08/13 05:45:43;;;;;;;8.20;5.00;;;;;;;28.05;37.12;101542.97;5101261;28;20413;-70
2022/08/13 05:48:09;;;;;;;6.13;4.80;;;;;;;29.65;33.43;101537.03;5099781;28;20453;-70
2022/08/13 05:50:35;;;;;;;6.00;4.50;;;;;;;30.61;30.82;101529.50;5100132;28;20422;-70
2022/08/13 05:53:05;;;;;;;6.40;5.00;;;;;;;30.34;32.05;101530.22;5100945;28;20468;-70
2022/08/13 05:55:31;;;;;;;5.33;4.67;;;;;;;30.27;31.41;101531.59;5100102;28;20244;-71
2022/08/13 05:57:57;;;;;;;5.83;4.50;;;;;;;30.64;31.83;101523.06;5100234;28;20543;-69
2022/08/13 06:05:53;;;;;;;6.30;4.47;;;;;;;30.88;30.75;101518.81;5100015;28;20470;-70
2022/08/13 06:08:23;;;;;;;5.00;4.60;;;;;;;31.83;30.28;101515.38;5099967;28;20410;-70
2022/08/13 06:10:48;;;;;;;6.90;5.00;;;;;;;32.19;28.37;101509.31;5100094;28;20494;-70
2022/08/13 06:13:15;;;;;;;9.23;7.37;;;;;;;32.22;29.44;101506.38;5100227;28;20714;-70
2022/08/13 06:15:42;;;;;;;8.37;5.47;;;;;;;31.66;29.87;101516.53;5099852;28;20263;-71
2022/08/13 06:18:10;;;;;;;6.50;4.57;;;;;;;30.75;31.45;101523.25;5097793;28;20429;-69
2022/08/13 06:20:36;;;;;;;10.83;4.33;;;;;;;30.64;31.57;101521.25;5099671;28;20446;-70
2022/08/13 06:23:03;;;;;;;6.17;4.40;;;;;;;32.81;28.28;101523.84;5099420;28;20430;-71
2022/08/13 06:25:29;;;;;;;6.10;4.13;;;;;;;33.08;27.80;101521.00;5099092;28;20196;-69
2022/08/13 06:28:00;;;;;;;4.93;4.40;;;;;;;32.74;27.95;101517.16;5099730;28;20727;-70
2022/08/13 06:30:28;;;;;;;6.37;4.10;;;;;;;32.44;28.49;101515.66;5098498;28;20180;-69
2022/08/13 06:32:57;;;;;;;5.17;4.57;;;;;;;32.97;28.02;101515.50;5098621;28;20501;-69
2022/08/13 06:35:23;;;;;;;4.50;4.10;;;;;;;31.50;29.51;101522.94;5099305;28;20419;-69
2022/08/13 06:37:49;;;;;;;5.40;4.13;;;;;;;33.12;27.40;101516.19;5099441;28;20437;-69
2022/08/13 06:40:15;;;;;;;5.90;3.90;;;;;;;32.14;28.65;101516.81;5099777;28;20886;-70
2022/08/13 06:42:44;;;;;;;7.90;4.07;;;;;;;31.82;28.95;101516.34;5098534;28;20172;-69
2022/08/13 06:45:10;;;;;;;9.13;4.23;;;;;;;31.94;29.12;101520.91;5098343;28;20414;-69
2022/08/13 06:47:35;;;;;;;5.40;4.50;;;;;;;31.40;30.08;101521.78;5099350;28;20425;-68
2022/08/13 06:50:04;;;;;;;7.13;6.30;;;;;;;32.77;27.96;101525.03;5098481;28;20176;-68
2022/08/13 06:52:29;;;;;;;7.83;4.90;;;;;;;33.30;26.98;101521.25;5098915;28;20221;-68
2022/08/13 06:54:57;;;;;;;4.50;4.10;;;;;;;34.04;25.80;101524.63;5098761;28;20474;-68
2022/08/13 06:57:23;;;;;;;6.70;5.77;;;;;;;34.13;26.17;101522.22;5099028;28;20225;-68
2022/08/13 06:59:49;;;;;;;11.23;4.60;;;;;;;33.96;26.77;101526.22;5098370;28;20462;-69
2022/08/13 07:02:17;;;;;;;4.70;4.20;;;;;;;32.65;27.12;101531.28;5098824;28;20259;-68
2022/08/13 07:04:47;;;;;;;5.83;4.03;;;;;;;31.30;28.93;101524.25;5098681;28;20455;-68
2022/08/13 07:07:13;;;;;;;4.50;4.07;;;;;;;33.74;26.53;101525.13;5099149;28;20483;-69
2022/08/13 07:09:38;;;;;;;5.77;4.50;;;;;;;35.07;24.56;101520.13;5097866;28;20417;-68
2022/08/13 07:12:04;;;;;;;8.33;4.10;;;;;;;33.68;25.59;101522.88;5098720;28;20183;-68
2022/08/13 07:14:30;;;;;;;6.33;4.13;;;;;;;33.95;26.61;101529.91;5098428;28;20533;-69
2022/08/13 07:16:59;;;;;;;4.80;4.23;;;;;;;35.41;24.08;101515.53;5098516;28;20425;-69
2022/08/13 07:19:24;;;;;;;6.10;4.00;;;;;;;34.92;25.15;101514.13;5097761;28;20573;-69
2022/08/13 07:21:49;;;;;;;4.40;4.00;;;;;;;34.88;25.71;101524.38;5098868;28;20448;-68
2022/08/13 07:24:15;;;;;;;5.13;4.17;;;;;;;34.22;26.21;101529.56;5098336;28;20180;-69
2022/08/13 07:26:41;;;;;;;4.80;4.40;;;;;;;34.97;25.42;101519.19;5098381;28;20306;-69
2022/08/13 07:29:07;;;;;;;5.57;4.50;;;;;;;35.58;24.37;101513.22;5098785;28;20167;-69
2022/08/13 07:31:34;;;;;;;7.40;3.97;;;;;;;35.87;23.65;101512.59;5098286;28;20437;-69
2022/08/13 07:34:04;;;;;;;8.83;4.53;;;;;;;33.96;26.15;101528.91;5098303;28;20414;-68
2022/08/13 07:36:33;;;;;;;4.93;4.50;;;;;;;34.30;26.23;101521.78;5098831;28;20450;-69
2022/08/13 07:39:06;;;;;;;5.80;3.97;;;;;;;35.12;24.81;101519.78;5098276;28;20441;-70
2022/08/13 07:41:34;;;;;;;9.73;4.03;;;;;;;36.53;23.45;101515.00;5097953;28;20450;-68
2022/08/13 07:43:59;;;;;;;4.47;3.60;;;;;;;35.38;24.18;101514.91;5097931;28;20413;-68
2022/08/13 07:46:25;;;;;;;8.23;4.20;;;;;;;36.08;23.78;101518.03;5097487;28;20409;-69
2022/08/13 07:48:52;;;;;;;8.73;3.90;;;;;;;37.34;22.17;101524.13;5098516;28;20449;-69
2022/08/13 07:51:22;;;;;;;7.50;4.37;;;;;;;36.65;22.68;101523.91;5098365;28;20232;-69
2022/08/13 07:53:48;;;;;;;8.33;3.90;;;;;;;34.81;24.37;101533.94;5097815;28;20739;-72
2022/08/13 07:56:20;;;;;;;8.27;3.90;;;;;;;37.18;22.05;101530.94;5098830;28;20413;-73
2022/08/13 07:58:46;;;;;;;6.27;4.07;;;;;;;37.48;21.71;101531.00;5098231;28;20290;-73
2022/08/13 08:01:11;;;;;;;4.67;3.63;;;;;;;37.66;21.42;101536.56;5097967;28;20505;-72
2022/08/13 08:03:45;;;;;;;7.43;3.87;;;;;;;32.78;27.22;101552.94;5098332;28;20186;-73
2022/08/13 08:06:18;;;;;;;5.50;4.00;;;;;;;36.63;23.58;101544.06;5097868;28;20170;-72
2022/08/13 08:08:44;;;;;;;5.27;4.10;;;;;;;37.92;21.37;101548.63;5097641;28;20408;-72
2022/08/13 08:12:30;;;;;;;5.30;4.17;;;;;;;38.03;21.87;101546.75;5097587;28;20471;-72
2022/08/13 08:13:59;;;;;;;4.20;3.80;;;;;;;38.55;21.24;101543.59;5097562;28;20428;-68
2022/08/13 08:16:32;;;;;;;4.93;4.20;;;;;;;38.55;21.53;101547.19;5097802;28;20417;-68
2022/08/13 08:18:58;;;;;;;7.90;4.50;;;;;;;38.19;21.68;101543.44;5097824;28;20862;-67
2022/08/13 08:21:24;;;;;;;7.17;4.30;;;;;;;35.96;23.80;101549.81;5097711;28;20433;-69
2022/08/13 08:23:56;;;;;;;7.43;4.13;;;;;;;36.91;22.86;101545.19;5096896;28;20802;-70
2022/08/13 08:26:25;;;;;;;6.33;4.10;;;;;;;38.32;22.02;101545.84;5098384;28;20175;-69
2022/08/13 08:28:52;;;;;;;5.97;4.30;;;;;;;38.52;21.01;101541.19;5096903;28;20467;-69
2022/08/13 08:31:17;;;;;;;4.60;4.13;;;;;;;38.30;21.36;101547.88;5097650;28;20409;-71
2022/08/13 08:33:43;;;;;;;6.77;4.10;;;;;;;39.62;19.83;101549.47;5097722;28;20421;-69
2022/08/13 08:36:10;;;;;;;9.97;3.83;;;;;;;36.97;22.34;101552.81;5097147;28;20263;-70
2022/08/13 08:44:23;;;;;;;4.57;4.17;;;;;;;37.42;20.90;101551.47;5096587;28;20463;-69
2022/08/13 08:46:57;;;;;;;5.30;3.70;;;;;;;39.06;20.98;101547.66;5097626;28;20418;-68
2022/08/13 08:49:24;;;;;;;3.70;3.30;;;;;;;37.67;20.26;101550.06;5096811;28;20436;-69
2022/08/13 08:51:51;;;;;;;4.23;3.60;;;;;;;35.82;22.93;101544.66;5097551;28;20410;-69
2022/08/13 08:54:18;;;;;;;6.63;3.30;;;;;;;36.95;21.57;101543.06;5101182;28;20899;-67
2022/08/13 08:56:45;;;;;;;3.90;3.60;;;;;;;34.33;24.18;101561.25;5100790;28;20943;-70
2022/08/13 08:59:13;;;;;;;8.00;3.47;;;;;;;35.94;22.72;101551.81;5100448;28;20532;-68
2022/08/13 09:01:42;;;;;;;6.07;3.30;;;;;;;37.45;21.00;101548.47;5101399;28;20492;-68
2022/08/13 09:04:09;;;;;;;6.47;3.60;;;;;;;35.47;22.24;101546.69;5101460;28;20402;-70
2022/08/13 09:06:34;;;;;;;5.53;3.33;;;;;;;36.64;21.83;101554.78;5100244;28;20410;-68
2022/08/13 09:09:01;;;;;;;4.77;3.17;;;;;;;35.99;22.05;101554.13;5101051;28;20473;-69
2022/08/13 09:11:34;;;;;;;5.70;3.30;;;;;;;36.62;22.24;101550.50;5101452;28;20202;-69
2022/08/13 09:14:02;;;;;;;5.67;3.30;;;;;;;36.07;22.44;101554.31;5100107;28;20420;-72
2022/08/13 09:16:28;;;;;;;3.43;3.10;;;;;;;32.44;26.34;101561.53;5100761;28;20830;-72
2022/08/13 09:18:54;;;;;;;4.07;3.60;;;;;;;35.37;23.12;101552.00;5083344;28;20446;-71
2022/08/13 09:21:19;;;;;;;3.90;3.60;;;;;;;34.64;24.18;101553.41;5100780;28;20421;-71
2022/08/13 09:23:46;;;;;;;5.10;3.90;;;;;;;34.41;24.40;101545.25;5100721;28;20217;-71
2022/08/13 09:26:13;;;;;;;4.00;3.60;;;;;;;38.12;20.85;101529.53;5099666;28;20172;-71
2022/08/13 09:28:39;;;;;;;6.70;4.00;;;;;;;33.74;24.58;101546.78;5099729;28;20658;-69
2022/08/13 09:31:04;;;;;;;3.90;3.50;;;;;;;35.00;23.43;101540.63;5100243;28;20444;-69
2022/08/13 09:33:31;;;;;;;4.50;3.27;;;;;;;39.41;19.20;101534.25;5100438;28;20191;-70
2022/08/13 09:35:56;;;;;;;5.37;3.13;;;;;;;39.31;19.52;101531.59;5100408;28;20549;-69
2022/08/13 09:38:22;;;;;;;3.23;3.03;;;;;;;37.09;21.04;101526.38;5100725;28;20444;-69
2022/08/13 09:40:54;;;;;;;4.07;3.30;;;;;;;38.85;19.77;101528.00;5099724;28;20246;-70
2022/08/13 09:43:22;;;;;;;6.50;3.30;;;;;;;36.31;21.53;101540.47;5100375;28;20186;-70
2022/08/13 09:45:48;;;;;;;5.53;3.00;;;;;;;35.45;21.86;101529.66;5100587;28;20489;-68
2022/08/13 09:48:15;;;;;;;3.47;3.27;;;;;;;38.28;19.52;101525.34;5099362;28;20414;-69
2022/08/13 09:50:41;;;;;;;3.30;3.00;;;;;;;35.65;22.09;101535.28;5100181;28;20414;-67
2022/08/13 09:53:07;;;;;;;8.73;3.17;;;;;;;35.01;22.06;101526.09;5100451;28;20394;-69
2022/08/13 09:55:35;;;;;;;4.30;2.97;;;;;;;36.50;21.03;101523.44;5099932;28;20694;-71
2022/08/13 09:58:01;;;;;;;3.83;3.13;;;;;;;36.44;20.63;101514.97;5100037;28;20438;-70
2022/08/13 10:00:31;;;;;;;3.57;3.30;;;;;;;33.72;23.45;101527.06;5100276;28;20453;-70
2022/08/13 10:03:01;;;;;;;3.60;3.30;;;;;;;31.95;25.72;101527.13;5100231;28;20172;-70
2022/08/13 10:05:32;;;;;;;3.73;3.40;;;;;;;35.19;22.44;101508.28;5099754;28;20406;-70
2022/08/13 10:07:59;;;;;;;4.10;3.60;;;;;;;33.24;24.54;101511.72;5098956;28;20799;-69
2022/08/13 10:10:25;;;;;;;4.13;3.43;;;;;;;33.89;23.52;101502.34;5099832;28;20493;-68
2022/08/13 10:12:52;;;;;;;3.80;3.50;;;;;;;34.37;23.03;101495.94;5100147;28;20413;-69
2022/08/13 10:15:17;;;;;;;4.90;3.30;;;;;;;33.99;23.86;101507.91;5099771;28;20597;-69
2022/08/13 10:17:44;;;;;;;3.73;3.43;;;;;;;34.27;23.50;101500.31;5098900;28;20517;-69
2022/08/13 10:20:11;;;;;;;4.03;3.73;;;;;;;33.69;23.86;101502.97;5099704;28;20180;-69
2022/08/13 10:22:36;;;;;;;3.73;3.43;;;;;;;35.34;22.44;101486.34;5099655;28;20505;-69
2022/08/13 10:25:02;;;;;;;3.83;3.50;;;;;;;36.29;21.71;101482.72;5099208;28;20502;-69
2022/08/13 10:27:27;;;;;;;3.67;3.27;;;;;;;33.75;24.42;101486.31;5100058;28;20529;-69
2022/08/13 10:29:52;;;;;;;3.60;3.30;;;;;;;35.66;22.32;101483.59;5099478;28;20164;-69
2022/08/13 10:32:18;;;;;;;6.00;3.50;;;;;;;36.99;21.06;101482.00;5099482;28;20438;-69
2022/08/13 10:34:44;;;;;;;4.00;3.70;;;;;;;33.62;24.54;101485.53;5099493;28;20168;-70
2022/08/13 10:37:09;;;;;;;3.90;3.37;;;;;;;32.63;25.86;101490.06;5099172;28;20424;-70
2022/08/13 10:39:34;;;;;;;7.20;4.00;;;;;;;32.97;25.62;101484.94;5099402;28;20461;-73
2022/08/13 10:42:00;;;;;;;4.97;3.60;;;;;;;34.80;24.27;101477.19;5099880;28;20602;-73
2022/08/13 10:44:25;;;;;;;4.80;3.90;;;;;;;36.32;22.30;101474.34;5099846;28;20560;-73
2022/08/13 10:46:51;;;;;;;3.60;3.40;;;;;;;35.71;23.34;101461.50;5099744;28;20172;-71
2022/08/13 10:49:16;;;;;;;3.93;3.63;;;;;;;35.70;22.82;101463.34;5099953;28;20165;-72
2022/08/13 10:51:42;;;;;;;8.60;4.40;;;;;;;31.87;26.73;101477.31;5099063;28;20423;-71
2022/08/13 10:54:07;;;;;;;5.93;4.23;;;;;;;33.41;25.53;101469.97;5098694;28;20269;-71
2022/08/13 10:56:33;;;;;;;4.23;3.73;;;;;;;34.40;24.59;101459.63;5099333;28;20194;-71
2022/08/13 10:59:00;;;;;;;4.90;4.20;;;;;;;31.87;27.53;101474.63;5098709;28;20534;-70
2022/08/13 11:01:26;;;;;;;5.20;4.37;;;;;;;33.18;26.14;101464.41;5097958;28;20533;-71
2022/08/13 11:03:56;;;;;;;4.30;3.90;;;;;;;34.48;24.61;101459.00;5098760;28;20444;-70
2022/08/13 11:06:27;;;;;;;4.57;4.17;;;;;;;33.61;25.41;101476.53;5098726;28;20823;-70
2022/08/13 11:08:57;;;;;;;4.40;4.00;;;;;;;33.55;25.47;101461.66;5097817;28;20444;-70
2022/08/13 11:11:23;;;;;;;4.40;4.00;;;;;;;34.77;24.38;101463.91;5098772;28;20831;-68
2022/08/13 11:13:48;;;;;;;4.03;3.70;;;;;;;32.40;27.22;101469.13;5098645;28;20457;-68
2022/08/13 11:19:00;;;;;;;5.20;4.10;;;;;;;35.77;23.77;101449.28;5098340;28;20287;-72
2022/08/13 11:21:25;;;;;;;4.90;4.50;;;;;;;34.56;24.90;101451.13;5097657;28;20414;-71
2022/08/13 11:23:52;;;;;;;4.73;4.17;;;;;;;33.73;25.42;101447.69;5098278;28;20425;-71
2022/08/13 11:26:19;;;;;;;4.90;4.37;;;;;;;35.49;23.67;101436.22;5097474;28;20172;-72
2022/08/13 11:28:44;;;;;;;4.50;4.10;;;;;;;34.83;23.84;101444.44;5098824;28;20406;-72
2022/08/13 11:31:10;;;;;;;5.50;4.07;;;;;;;33.38;26.04;101451.25;5098143;28;20428;-75
2022/08/13 11:33:35;;;;;;;4.50;4.10;;;;;;;35.32;24.25;101436.78;5097995;28;20233;-73
2022/08/13 11:36:00;;;;;;;4.67;4.27;;;;;;;33.81;25.98;101456.09;5098793;28;20160;-72
2022/08/13 11:38:26;;;;;;;5.20;4.47;;;;;;;32.32;27.16;101449.09;5098186;28;20183;-72
2022/08/13 11:40:56;;;;;;;5.60;5.20;;;;;;;33.07;26.53;101440.91;5098259;28;20261;-71
2022/08/13 11:43:24;;;;;;;5.63;4.50;;;;;;;32.81;26.49;101441.97;5098508;28;20221;-71
2022/08/13 11:45:49;;;;;;;6.33;4.90;;;;;;;32.80;27.28;101437.56;5097974;28;20406;-72
2022/08/13 11:48:16;;;;;;;6.73;4.57;;;;;;;35.17;24.75;101426.25;5097991;28;20836;-69
2022/08/13 11:50:41;;;;;;;6.23;5.20;;;;;;;34.69;25.17;101430.16;5098521;28;20175;-68